Time;durP1;ratioP1;P1;durP2;ratioP2;P2;SDS_P1;SDS_P2;PMS_P1;PMS_P2;Temp;Humidity;BMP_temperature;BMP_pressure;BME280_temperature;BME280_humidity;BME280_pressure;Samples;Min_cycle;Max_cycle;Signal;HPM_P1;HPM_P2
2022/11/01 05:01:32;;;;;;;2.28;0.65;;;;;;;12.47;86.74;100981.53;6195485;22;20027;-82
2022/11/01 05:03:58;;;;;;;4.28;0.73;;;;;;;12.40;86.82;100981.78;6209230;23;20012;-81
2022/11/01 05:06:23;;;;;;;2.77;0.60;;;;;;;12.42;86.66;100998.44;6211339;23;20028;-82
2022/11/01 05:08:48;;;;;;;3.60;0.90;;;;;;;12.40;86.57;101013.25;6212130;23;20020;-81
2022/11/01 05:11:14;;;;;;;5.25;0.70;;;;;;;12.39;87.17;101014.31;6211669;23;20096;-81
2022/11/01 05:13:39;;;;;;;2.27;0.63;;;;;;;12.33;87.84;101018.84;6212722;23;20104;-81
2022/11/01 05:16:05;;;;;;;3.17;0.80;;;;;;;12.29;88.90;101022.31;6212142;23;20009;-85
2022/11/01 05:18:30;;;;;;;3.07;0.73;;;;;;;12.19;88.49;101013.19;6211839;23;20431;-83
2022/11/01 05:20:56;;;;;;;5.80;0.70;;;;;;;12.25;89.38;101027.44;6210677;23;20005;-82
2022/11/01 05:23:22;;;;;;;2.47;0.60;;;;;;;12.14;88.91;101042.69;6212057;23;20243;-82
2022/11/01 05:25:47;;;;;;;2.10;0.70;;;;;;;11.99;89.70;101018.47;6212106;23;20420;-82
2022/11/01 05:28:13;;;;;;;2.70;0.70;;;;;;;12.01;90.50;101035.13;6183408;23;20078;-83
2022/11/01 05:30:40;;;;;;;4.57;0.95;;;;;;;11.89;90.84;101029.94;6210065;23;20075;-82
2022/11/01 05:33:06;;;;;;;3.80;0.70;;;;;;;11.81;91.71;101036.63;6210934;23;20048;-83
2022/11/01 05:35:33;;;;;;;1.87;0.70;;;;;;;11.68;92.25;101029.03;6211561;23;20243;-83
2022/11/01 05:38:00;;;;;;;3.25;0.60;;;;;;;11.69;92.11;101036.81;6212032;23;20004;-84
2022/11/01 05:40:25;;;;;;;1.60;0.73;;;;;;;11.69;92.77;101044.88;6210946;23;20446;-83
2022/11/01 05:42:51;;;;;;;2.67;0.77;;;;;;;11.65;92.55;101043.78;6211678;23;20001;-84
2022/11/01 05:45:16;;;;;;;2.42;0.60;;;;;;;11.64;92.79;101034.91;6210375;23;20001;-83
2022/11/01 05:47:42;;;;;;;2.43;0.60;;;;;;;11.57;92.26;101053.13;6183341;23;20008;-83
2022/11/01 05:50:12;;;;;;;10.03;0.70;;;;;;;11.59;93.23;101051.00;6184837;23;20124;-85
2022/11/01 05:52:37;;;;;;;3.20;0.63;;;;;;;11.54;93.43;101055.53;6185196;23;20378;-84
2022/11/01 05:55:04;;;;;;;4.90;0.82;;;;;;;11.49;92.05;101048.25;6211765;23;20036;-84
2022/11/01 05:57:29;;;;;;;8.15;1.00;;;;;;;11.52;92.31;101066.50;6212459;23;20220;-85
2022/11/01 05:59:55;;;;;;;6.03;1.13;;;;;;;11.51;91.58;101071.06;6183522;23;20497;-85
2022/11/01 06:02:20;;;;;;;12.37;0.80;;;;;;;11.62;89.03;101073.81;6211687;23;20088;-85
2022/11/01 06:04:46;;;;;;;7.47;1.07;;;;;;;11.61;87.62;101081.06;6211259;23;20005;-86
2022/11/01 06:07:12;;;;;;;8.15;1.00;;;;;;;11.74;86.59;101087.88;6212523;23;20327;-85
2022/11/01 06:09:37;;;;;;;8.30;0.80;;;;;;;11.67;86.04;101081.91;6211703;23;20028;-85
2022/11/01 06:12:04;;;;;;;6.18;0.90;;;;;;;11.68;85.99;101093.47;6184819;23;20027;-85
2022/11/01 06:14:29;;;;;;;6.20;0.70;;;;;;;11.53;86.72;101092.25;6212043;23;20340;-86
2022/11/01 06:16:55;;;;;;;6.50;0.90;;;;;;;11.47;86.26;101096.78;6210293;23;20009;-85
2022/11/01 06:19:21;;;;;;;3.93;0.70;;;;;;;11.42;87.54;101106.69;6212203;23;20000;-85
2022/11/01 06:21:46;;;;;;;4.97;1.10;;;;;;;11.34;87.98;101111.44;6212081;23;20239;-85
2022/11/01 06:24:12;;;;;;;3.72;1.00;;;;;;;11.36;88.22;101109.31;6212735;23;20004;-86
2022/11/01 06:26:37;;;;;;;3.23;0.80;;;;;;;11.34;89.09;101114.13;6222368;23;19992;-85
2022/11/01 06:29:03;;;;;;;4.10;0.90;;;;;;;11.40;88.20;101119.53;6225210;23;20038;-87
2022/11/01 06:31:29;;;;;;;5.72;1.00;;;;;;;11.38;87.43;101117.13;6223128;23;19996;-84
2022/11/01 06:33:54;;;;;;;6.23;0.80;;;;;;;11.46;87.28;101129.25;6229141;23;20009;-87
2022/11/01 06:36:21;;;;;;;5.13;0.53;;;;;;;11.39;87.61;101124.13;6225979;23;20032;-91
2022/11/01 06:38:47;;;;;;;5.47;0.80;;;;;;;11.34;88.76;101126.75;6223086;23;20027;-88
2022/11/01 06:41:12;;;;;;;6.65;1.00;;;;;;;11.35;88.66;101137.22;6220223;23;20337;-88
2022/11/01 06:43:38;;;;;;;4.87;0.90;;;;;;;11.34;89.63;101153.56;6215102;23;20004;-89
2022/11/01 06:46:03;;;;;;;4.57;0.98;;;;;;;11.29;89.12;101140.09;6214972;23;20015;-89
2022/11/01 06:48:28;;;;;;;7.20;1.17;;;;;;;11.29;89.78;101148.97;6218364;23;20031;-88
2022/11/01 06:50:57;;;;;;;2.83;0.70;;;;;;;11.39;90.35;101160.84;6193593;23;20005;-88
2022/11/01 06:53:23;;;;;;;6.80;0.90;;;;;;;11.33;89.96;101155.44;6218436;23;20005;-89
2022/11/01 06:55:48;;;;;;;9.75;1.00;;;;;;;11.32;90.78;101169.91;6220987;23;20009;-88
2022/11/01 06:58:15;;;;;;;9.23;1.00;;;;;;;11.26;90.59;101164.75;6222132;23;20225;-90
2022/11/01 07:00:41;;;;;;;4.68;0.75;;;;;;;11.26;90.85;101160.22;6224962;23;20060;-88
2022/11/01 07:03:10;;;;;;;5.30;0.70;;;;;;;11.30;90.52;101176.59;6228859;23;20004;-92
2022/11/01 07:05:36;;;;;;;7.53;0.90;;;;;;;11.18;91.47;101166.84;6241015;23;19997;-94
2022/11/01 07:08:03;;;;;;;5.03;0.80;;;;;;;11.16;92.03;101168.16;6214729;23;20003;-94
2022/11/01 07:10:28;;;;;;;8.02;1.58;;;;;;;11.16;91.30;101176.19;6240324;23;20001;-91
2022/11/01 07:13:02;;;;;;;6.37;0.90;;;;;;;11.14;92.09;101187.19;6236754;23;20071;-91
2022/11/01 07:15:29;;;;;;;7.82;0.88;;;;;;;11.14;92.58;101186.38;6237809;23;20035;-92
2022/11/01 07:18:03;;;;;;;4.68;0.88;;;;;;;11.08;91.88;101193.56;6239914;23;20055;-90
2022/11/01 07:20:30;;;;;;;9.73;1.20;;;;;;;11.05;92.18;101200.25;6215571;23;20012;-88
2022/11/01 07:23:00;;;;;;;9.55;1.20;;;;;;;11.04;91.60;101203.97;6215860;23;20079;-89
2022/11/01 07:25:26;;;;;;;4.80;0.82;;;;;;;11.11;91.24;101213.72;6214948;23;20008;-89
2022/11/01 07:27:52;;;;;;;7.18;1.08;;;;;;;11.10;90.96;101220.13;6192905;23;20035;-90
2022/11/01 07:30:19;;;;;;;8.97;1.20;;;;;;;11.17;90.55;101231.47;6224014;23;20427;-90
2022/11/01 07:32:47;;;;;;;14.48;1.20;;;;;;;11.19;88.99;101232.84;6225830;23;20012;-89
2022/11/01 07:35:12;;;;;;;10.65;1.63;;;;;;;11.23;88.60;101229.66;6225052;23;20005;-90
2022/11/01 07:37:38;;;;;;;13.07;1.40;;;;;;;11.34;87.12;101234.84;6226151;23;20060;-91
2022/11/01 07:40:04;;;;;;;7.67;1.27;;;;;;;11.34;87.22;101237.53;6227497;23;20024;-90
2022/11/01 07:42:29;;;;;;;12.93;1.33;;;;;;;11.29;86.89;101232.16;6228384;23;20224;-90
2022/11/01 07:44:54;;;;;;;11.83;1.43;;;;;;;11.30;87.28;101252.53;6227540;23;20637;-89
2022/11/01 07:47:20;;;;;;;9.10;1.33;;;;;;;11.38;87.38;101253.13;6220917;23;20004;-88
2022/11/01 07:49:46;;;;;;;11.53;1.20;;;;;;;11.33;87.44;101257.38;6218514;23;20008;-86
2022/11/01 07:52:12;;;;;;;9.90;1.38;;;;;;;11.41;87.12;101260.69;6213745;23;20000;-87
2022/11/01 07:54:37;;;;;;;12.53;1.00;;;;;;;11.40;88.19;101248.34;6211308;23;20035;-87
2022/11/01 07:57:02;;;;;;;10.57;1.70;;;;;;;11.46;87.04;101258.88;6212548;23;20008;-86
2022/11/01 07:59:28;;;;;;;8.73;1.13;;;;;;;11.42;87.25;101243.53;6213150;23;20020;-86
2022/11/01 08:01:54;;;;;;;7.10;1.17;;;;;;;11.42;85.51;101241.66;6185197;23;20255;-87
2022/11/01 08:04:21;;;;;;;10.05;1.42;;;;;;;11.54;86.63;101260.28;6213354;23;20019;-87
2022/11/01 08:06:46;;;;;;;8.53;0.93;;;;;;;11.61;86.39;101268.94;6213590;23;20058;-86
2022/11/01 08:09:12;;;;;;;12.37;1.70;;;;;;;11.59;85.30;101279.13;6213640;23;20235;-88
2022/11/01 08:11:37;;;;;;;9.53;1.47;;;;;;;11.60;85.03;101279.91;6212723;23;20629;-87
2022/11/01 08:14:02;;;;;;;10.00;1.30;;;;;;;11.59;85.52;101284.50;6213361;23;20031;-88
2022/11/01 08:16:28;;;;;;;7.07;1.25;;;;;;;11.63;84.50;101274.06;6213709;23;20079;-87
2022/11/01 08:18:53;;;;;;;10.47;1.13;;;;;;;11.69;84.20;101280.28;6214789;23;20479;-88
2022/11/01 08:21:18;;;;;;;10.10;1.00;;;;;;;11.63;84.59;101274.06;6215540;23;20001;-88
2022/11/01 08:23:47;;;;;;;8.90;1.40;;;;;;;11.71;84.02;101286.19;6216255;23;20051;-88
2022/11/01 08:26:13;;;;;;;12.57;1.30;;;;;;;11.69;84.15;101288.31;6215315;23;20004;-87
2022/11/01 08:28:38;;;;;;;10.90;1.47;;;;;;;11.73;83.72;101289.44;6214891;23;20009;-87
2022/11/01 08:31:06;;;;;;;12.52;1.70;;;;;;;11.79;83.66;101294.59;6214175;23;20108;-87
2022/11/01 08:33:31;;;;;;;9.40;1.20;;;;;;;11.77;82.65;101306.69;6214258;23;20474;-87
2022/11/01 08:35:57;;;;;;;11.23;1.20;;;;;;;11.78;82.78;101317.16;6214811;23;20005;-87
2022/11/01 08:38:22;;;;;;;13.23;2.03;;;;;;;11.80;83.88;101308.84;6212135;23;20012;-87
2022/11/01 08:40:47;;;;;;;15.20;1.57;;;;;;;11.79;82.65;101301.88;6211541;23;20008;-88
2022/11/01 08:43:12;;;;;;;13.03;1.80;;;;;;;11.84;82.69;101301.91;6213344;23;20051;-87
2022/11/01 08:45:39;;;;;;;11.77;1.60;;;;;;;11.89;82.79;101318.06;6213065;23;20009;-87
2022/11/01 08:48:05;;;;;;;9.88;1.52;;;;;;;11.87;81.34;101296.00;6213479;23;20008;-87
2022/11/01 08:50:32;;;;;;;10.20;1.80;;;;;;;12.00;81.92;101320.88;6212868;23;20051;-87
2022/11/01 08:52:58;;;;;;;10.68;1.27;;;;;;;11.98;82.20;101323.78;6186297;23;20039;-87
2022/11/01 08:55:24;;;;;;;12.40;1.87;;;;;;;11.98;81.89;101313.03;6213221;23;20000;-87
2022/11/01 08:57:49;;;;;;;10.40;1.50;;;;;;;12.00;81.87;101315.50;6212186;23;20036;-87
2022/11/01 09:00:15;;;;;;;13.00;1.43;;;;;;;12.08;80.99;101331.16;6212375;23;20336;-88
2022/11/01 09:02:41;;;;;;;12.30;1.70;;;;;;;12.13;81.24;101331.19;6213503;23;20011;-87
2022/11/01 09:05:07;;;;;;;13.05;1.42;;;;;;;12.09;81.20;101335.44;6212684;23;20004;-87
2022/11/01 09:07:36;;;;;;;9.97;1.37;;;;;;;12.15;80.61;101331.75;6211605;23;20083;-86
2022/11/01 09:10:02;;;;;;;11.77;2.03;;;;;;;12.20;80.93;101336.34;6212200;23;20294;-86
2022/11/01 09:12:28;;;;;;;14.00;1.63;;;;;;;12.19;80.89;101335.56;6212634;23;20000;-86
2022/11/01 09:14:54;;;;;;;14.07;1.40;;;;;;;12.24;80.68;101346.31;6212532;23;20458;-88
2022/11/01 09:17:22;;;;;;;8.90;1.63;;;;;;;12.19;80.86;101330.19;6212669;23;20012;-89
2022/11/01 09:19:47;;;;;;;15.07;1.63;;;;;;;12.21;80.23;101321.84;6198329;23;20028;-88
2022/11/01 09:22:14;;;;;;;11.37;1.20;;;;;;;12.30;79.82;101335.63;6229081;23;20791;-88
2022/11/01 09:24:39;;;;;;;10.45;1.60;;;;;;;12.32;79.73;101328.13;6230133;23;20089;-88
2022/11/01 09:27:06;;;;;;;7.87;1.23;;;;;;;12.39;80.41;101336.78;6215709;23;20013;-88
2022/11/01 09:29:31;;;;;;;12.27;1.90;;;;;;;12.45;80.20;101359.13;6213310;23;20571;-87
2022/11/01 09:31:58;;;;;;;8.55;1.00;;;;;;;12.40;79.67;101330.34;6212958;23;20008;-87
2022/11/01 09:34:23;;;;;;;8.67;1.60;;;;;;;12.49;80.18;101341.44;6213411;23;20008;-88
2022/11/01 09:36:49;;;;;;;12.70;1.48;;;;;;;12.47;80.85;101335.50;6213097;23;20035;-88
2022/11/01 09:39:16;;;;;;;9.27;1.90;;;;;;;12.52;79.69;101347.09;6211919;23;20004;-88
2022/11/01 09:41:46;;;;;;;15.05;2.00;;;;;;;12.57;79.26;101360.56;6210517;23;20004;-87
2022/11/01 09:44:16;;;;;;;12.63;1.25;;;;;;;12.61;80.21;101370.78;6211840;23;20011;-91
2022/11/01 09:46:48;;;;;;;10.93;1.60;;;;;;;12.67;79.73;101388.59;6215625;23;20007;-90
2022/11/01 09:49:22;;;;;;;10.53;1.60;;;;;;;12.70;79.92;101388.88;6215533;23;20247;-91
2022/11/01 09:51:48;;;;;;;17.60;1.73;;;;;;;12.75;79.99;101387.28;6189688;23;20076;-92
2022/11/01 09:54:17;;;;;;;12.57;1.70;;;;;;;12.81;79.22;101400.50;6214756;23;20413;-91
2022/11/01 09:56:54;;;;;;;14.98;1.80;;;;;;;12.84;79.71;101397.31;6213743;23;20012;-92
2022/11/01 09:59:33;;;;;;;18.27;1.90;;;;;;;12.91;78.73;101401.66;6213937;23;20074;-91
2022/11/01 10:02:29;;;;;;;13.00;1.57;;;;;;;12.93;78.41;101402.22;6213739;23;20436;-91
2022/11/01 10:04:57;;;;;;;11.43;1.50;;;;;;;12.95;79.26;101408.16;6215152;23;20262;-91
2022/11/01 10:07:36;;;;;;;10.07;1.73;;;;;;;12.99;79.17;101422.69;6215862;23;20075;-91
2022/11/01 10:10:32;;;;;;;17.45;1.83;;;;;;;13.06;78.28;101414.38;6213964;23;20008;-91
2022/11/01 10:13:20;;;;;;;32.58;2.40;;;;;;;13.10;77.81;101421.69;6215495;23;20009;-91
2022/11/01 10:15:57;;;;;;;9.70;1.85;;;;;;;13.13;77.95;101417.66;6213267;23;20009;-91
2022/11/01 10:18:28;;;;;;;20.98;2.15;;;;;;;13.14;78.96;101421.97;6214872;23;20083;-91
2022/11/01 10:21:04;;;;;;;11.80;1.80;;;;;;;13.16;77.37;101433.28;6215769;23;20007;-92
2022/11/01 10:23:51;;;;;;;8.75;1.38;;;;;;;13.12;77.93;101442.94;6214294;23;20051;-93
2022/11/01 10:26:43;;;;;;;13.57;1.70;;;;;;;13.09;78.64;101430.81;6215473;23;20016;-91
2022/11/01 10:29:27;;;;;;;20.83;1.80;;;;;;;13.14;78.60;101432.72;6214177;23;20240;-91
2022/11/01 10:31:53;;;;;;;14.95;1.75;;;;;;;13.17;78.31;101419.56;6214374;23;20032;-92
2022/11/01 10:34:26;;;;;;;17.13;1.95;;;;;;;13.28;78.95;101425.00;6192817;23;20309;-91
2022/11/01 10:36:59;;;;;;;16.38;1.75;;;;;;;13.31;78.18;101422.59;6213447;23;20474;-92
2022/11/01 10:39:35;;;;;;;14.55;1.63;;;;;;;13.48;77.80;101445.84;6214978;23;20088;-91
2022/11/01 10:42:21;;;;;;;12.85;1.60;;;;;;;13.59;76.94;101441.31;6212774;23;20024;-88
2022/11/01 10:44:54;;;;;;;12.25;1.73;;;;;;;13.58;77.45;101427.06;6211699;23;20008;-89
2022/11/01 10:47:21;;;;;;;13.65;1.85;;;;;;;13.70;76.75;101437.59;6211587;23;20004;-87
2022/11/01 10:49:53;;;;;;;13.43;1.40;;;;;;;13.83;76.21;101435.50;6185561;23;20079;-87
2022/11/01 10:52:26;;;;;;;14.40;1.70;;;;;;;13.85;76.39;101428.75;6212015;23;20236;-88
2022/11/01 10:54:55;;;;;;;10.02;1.50;;;;;;;13.98;75.01;101437.41;6211947;23;20079;-90
2022/11/01 10:57:45;;;;;;;9.52;1.35;;;;;;;14.05;76.44;101438.78;6213124;23;20040;-91
2022/11/01 11:00:17;;;;;;;14.82;2.25;;;;;;;14.09;74.68;101428.28;6216088;23;20014;-92
2022/11/01 11:03:29;;;;;;;10.75;1.70;;;;;;;14.16;74.78;101438.81;6217268;23;20005;-92
2022/11/01 11:05:58;;;;;;;8.43;1.40;;;;;;;14.19;74.75;101432.88;6212719;23;20012;-92
2022/11/01 11:08:24;;;;;;;9.85;1.63;;;;;;;14.21;74.97;101434.22;6212635;23;20009;-92
2022/11/01 11:10:50;;;;;;;9.73;1.55;;;;;;;14.24;73.51;101414.81;6213051;23;19996;-92
2022/11/01 11:13:20;;;;;;;12.97;1.60;;;;;;;14.37;73.95;101423.44;6214383;23;20007;-91
2022/11/01 11:15:52;;;;;;;10.37;2.03;;;;;;;14.38;72.95;101425.06;6215234;23;20235;-91
2022/11/01 11:18:30;;;;;;;11.52;1.63;;;;;;;14.33;73.38;101407.00;6215230;23;20008;-93
2022/11/01 11:21:05;;;;;;;10.20;2.15;;;;;;;14.41;72.67;101424.53;6213439;23;20000;-93
2022/11/01 11:23:33;;;;;;;11.43;1.60;;;;;;;14.37;72.68;101408.09;6215122;23;20005;-91
2022/11/01 11:26:04;;;;;;;12.32;1.65;;;;;;;14.49;72.92;101420.50;6214527;23;20008;-91
2022/11/01 11:28:33;;;;;;;12.10;1.30;;;;;;;14.59;72.57;101419.69;6214302;23;20000;-93
2022/11/01 11:31:20;;;;;;;8.73;1.52;;;;;;;14.59;72.90;101417.81;6217490;23;20083;-91
2022/11/01 11:33:52;;;;;;;6.10;1.50;;;;;;;14.70;72.33;101426.72;6218004;23;19997;-91
2022/11/01 11:36:30;;;;;;;11.33;1.43;;;;;;;14.77;72.70;101421.06;6217642;23;20243;-91
2022/11/01 11:38:56;;;;;;;11.88;1.70;;;;;;;14.83;70.95;101420.78;6216441;23;20012;-89
2022/11/01 11:41:30;;;;;;;12.20;1.60;;;;;;;14.83;71.37;101411.88;6216003;23;20007;-89
2022/11/01 11:43:57;;;;;;;11.70;1.60;;;;;;;14.90;71.01;101431.28;6218357;23;20083;-90
2022/11/01 11:46:23;;;;;;;10.70;1.40;;;;;;;14.88;70.49;101422.66;6215940;23;20446;-90
2022/11/01 11:48:59;;;;;;;9.93;1.30;;;;;;;14.86;70.82;101422.13;6219484;23;20004;-92
2022/11/01 11:51:29;;;;;;;11.65;1.52;;;;;;;14.86;70.99;101419.44;6216022;23;20004;-93
2022/11/01 11:54:13;;;;;;;9.27;1.60;;;;;;;15.03;70.24;101426.41;6214769;23;20005;-93
2022/11/01 11:56:39;;;;;;;11.40;1.47;;;;;;;15.18;70.38;101420.97;6214789;23;20004;-95
2022/11/01 11:59:27;;;;;;;12.93;1.83;;;;;;;15.38;70.31;101419.28;6215273;23;20020;-95
2022/11/01 12:01:58;;;;;;;9.15;1.30;;;;;;;15.41;69.45;101438.47;6193750;23;20025;-94
2022/11/01 12:04:29;;;;;;;8.48;1.30;;;;;;;15.33;68.95;101413.94;6225165;23;20000;-95
2022/11/01 12:06:54;;;;;;;12.63;1.60;;;;;;;15.45;69.46;101425.22;6210741;23;20009;-95
2022/11/01 12:09:46;;;;;;;8.95;1.58;;;;;;;15.64;69.96;101430.78;6240641;22;20020;-95
2022/11/01 12:12:27;;;;;;;8.70;1.38;;;;;;;15.71;68.75;101427.78;6226719;22;19980;-90
2022/11/01 12:14:54;;;;;;;8.13;1.40;;;;;;;15.79;68.02;101427.22;6240774;22;19996;-90
2022/11/01 12:17:30;;;;;;;9.13;1.53;;;;;;;15.78;68.46;101433.69;6240851;22;20271;-91
2022/11/01 12:20:18;;;;;;;12.23;1.73;;;;;;;15.91;68.70;101432.31;6212058;23;20005;-93
2022/11/01 12:23:26;;;;;;;8.48;1.58;;;;;;;15.82;67.69;101415.84;6214473;23;20429;-92
2022/11/01 12:25:52;;;;;;;10.70;1.50;;;;;;;15.93;66.73;101422.03;6215608;23;20363;-92
2022/11/01 12:28:24;;;;;;;7.80;1.15;;;;;;;15.89;67.06;101432.56;6216217;23;20004;-91
2022/11/01 12:30:55;;;;;;;7.68;1.10;;;;;;;15.93;66.75;101421.22;6213371;23;20004;-92
2022/11/01 12:33:23;;;;;;;10.68;1.40;;;;;;;16.04;66.81;101420.88;6214614;23;20008;-91
2022/11/01 12:35:53;;;;;;;8.67;1.20;;;;;;;16.11;65.29;101428.66;6214567;23;20000;-91
2022/11/01 12:38:33;;;;;;;12.73;1.50;;;;;;;16.13;65.67;101404.88;6188183;23;20019;-91
2022/11/01 12:41:11;;;;;;;6.07;1.55;;;;;;;16.00;65.73;101411.72;6213215;23;20015;-91
2022/11/01 12:44:09;;;;;;;17.80;1.92;;;;;;;15.89;66.73;101419.06;6214776;23;20015;-91
2022/11/01 12:46:54;;;;;;;8.13;1.10;;;;;;;16.00;66.49;101430.63;6215781;23;20070;-91
2022/11/01 12:49:43;;;;;;;5.22;1.10;;;;;;;16.01;66.19;101415.22;6221305;23;20008;-90
2022/11/01 12:52:24;;;;;;;6.93;1.70;;;;;;;15.81;66.63;101398.03;6230539;23;20000;-92
2022/11/01 12:55:11;;;;;;;6.32;1.20;;;;;;;15.74;66.60;101417.25;6230273;23;20455;-90
2022/11/01 12:57:38;;;;;;;4.40;1.00;;;;;;;15.59;66.14;101398.41;6229835;23;20069;-91
2022/11/01 13:00:06;;;;;;;6.68;1.20;;;;;;;15.55;66.25;101408.94;6226764;23;20083;-91
2022/11/01 13:03:11;;;;;;;6.55;1.00;;;;;;;15.56;67.42;101410.56;6191921;23;20005;-91
2022/11/01 13:05:42;;;;;;;7.93;1.38;;;;;;;15.49;66.57;101401.16;6219313;23;20004;-91
2022/11/01 13:08:26;;;;;;;9.40;1.35;;;;;;;15.50;67.04;101403.59;6221505;23;20095;-91
2022/11/01 13:10:53;;;;;;;7.22;1.40;;;;;;;15.54;66.68;101401.94;6224855;23;20080;-91
2022/11/01 13:13:31;;;;;;;7.22;1.30;;;;;;;15.52;65.88;101389.81;6220915;23;20035;-91
2022/11/01 13:16:18;;;;;;;7.40;1.10;;;;;;;15.50;66.05;101386.56;6212497;23;20268;-92
2022/11/01 13:18:55;;;;;;;5.60;1.00;;;;;;;15.42;66.73;101385.25;6213534;23;20552;-92
2022/11/01 13:21:42;;;;;;;8.73;1.27;;;;;;;15.41;66.24;101391.75;6213642;23;20012;-92
2022/11/01 13:24:26;;;;;;;7.53;0.93;;;;;;;15.37;66.54;101399.59;6213646;23;20005;-92
2022/11/01 13:27:14;;;;;;;7.60;1.10;;;;;;;15.36;67.90;101400.69;6211816;23;20645;-92
2022/11/01 13:29:52;;;;;;;8.60;1.60;;;;;;;15.26;67.51;101385.31;6212745;23;20015;-92
2022/11/01 13:32:20;;;;;;;3.25;0.93;;;;;;;15.28;67.39;101398.53;6186106;23;20019;-93
2022/11/01 13:35:03;;;;;;;5.35;1.05;;;;;;;15.28;67.08;101388.56;6212546;23;20027;-93
2022/11/01 13:37:35;;;;;;;10.73;1.17;;;;;;;15.36;67.20;101384.47;6212976;23;20617;-92
2022/11/01 13:40:14;;;;;;;10.10;1.10;;;;;;;15.37;67.26;101372.59;6211429;23;20004;-93
2022/11/01 13:42:52;;;;;;;6.20;1.10;;;;;;;15.39;66.26;101383.94;6212242;23;20051;-93
2022/11/01 13:45:28;;;;;;;7.57;1.00;;;;;;;15.40;66.69;101379.31;6220173;23;20551;-95
2022/11/01 13:48:14;;;;;;;4.15;1.05;;;;;;;15.43;65.99;101376.88;6190048;23;20005;-86
2022/11/01 13:51:18;;;;;;;9.40;1.17;;;;;;;15.41;67.47;101372.84;6163276;23;20005;-86
2022/11/01 13:53:54;;;;;;;7.13;1.30;;;;;;;15.39;66.87;101381.22;6212681;23;20001;-88
2022/11/01 13:56:30;;;;;;;5.00;1.08;;;;;;;15.29;66.45;101383.94;6213339;23;20183;-89
2022/11/01 13:58:57;;;;;;;5.88;1.10;;;;;;;15.28;66.66;101393.13;6198733;23;20016;-86
2022/11/01 14:01:28;;;;;;;5.95;1.15;;;;;;;15.23;66.01;101385.06;6212285;23;20009;-84
2022/11/01 14:04:12;;;;;;;5.40;1.02;;;;;;;15.21;65.57;101393.44;6212353;23;20685;-83
2022/11/01 14:06:47;;;;;;;7.60;1.38;;;;;;;15.14;65.69;101395.63;6211065;23;20055;-83
2022/11/01 14:09:25;;;;;;;7.03;1.23;;;;;;;15.13;65.87;101396.72;6211818;23;20005;-86
2022/11/01 14:11:55;;;;;;;8.05;1.10;;;;;;;15.12;66.62;101400.50;6211033;23;20004;-86
2022/11/01 14:14:30;;;;;;;7.03;1.15;;;;;;;15.09;66.14;101395.63;6211703;23;20018;-86
2022/11/01 14:17:24;;;;;;;8.45;1.15;;;;;;;15.09;66.74;101395.63;6211949;23;20031;-88
2022/11/01 14:19:55;;;;;;;9.90;1.33;;;;;;;15.05;65.88;101395.38;6183909;23;20013;-88
2022/11/01 14:22:20;;;;;;;6.00;1.20;;;;;;;15.02;65.61;101403.19;6211906;23;20012;-88
2022/11/01 14:24:57;;;;;;;6.10;1.20;;;;;;;14.99;66.77;101399.16;6212363;23;20004;-90
2022/11/01 14:27:36;;;;;;;7.07;1.35;;;;;;;15.06;66.15;101404.28;6212188;23;20012;-91
2022/11/01 14:30:13;;;;;;;6.45;1.00;;;;;;;15.01;66.37;101393.47;6213555;23;20005;-90
2022/11/01 14:32:39;;;;;;;5.03;1.13;;;;;;;14.95;66.09;101388.13;6213337;23;20001;-91
2022/11/01 14:35:11;;;;;;;9.63;1.80;;;;;;;14.91;66.48;101383.53;6212309;23;20340;-90
2022/11/01 14:37:41;;;;;;;7.63;1.08;;;;;;;14.83;65.61;101385.72;6211230;23;20023;-89
2022/11/01 14:40:09;;;;;;;6.13;1.02;;;;;;;14.81;66.23;101395.16;6211729;23;20007;-91
2022/11/01 14:42:42;;;;;;;11.77;1.40;;;;;;;14.75;66.65;101390.84;6211787;23;20019;-91
2022/11/01 14:45:33;;;;;;;8.40;1.02;;;;;;;14.73;67.05;101393.00;6211817;23;20012;-88
2022/11/01 14:48:05;;;;;;;6.43;1.20;;;;;;;14.71;66.91;101405.97;6195737;23;20387;-90
2022/11/01 14:50:57;;;;;;;8.88;1.17;;;;;;;14.67;66.93;101400.28;6211886;23;20012;-90
2022/11/01 14:53:29;;;;;;;7.28;0.98;;;;;;;14.63;66.64;101399.19;6214250;23;20297;-90
2022/11/01 14:56:11;;;;;;;11.43;1.40;;;;;;;14.61;67.22;101401.34;6212122;23;20015;-91
2022/11/01 14:58:36;;;;;;;6.90;1.07;;;;;;;14.54;67.60;101401.63;6213136;23;20305;-90
2022/11/01 15:01:05;;;;;;;11.38;1.38;;;;;;;14.57;67.81;101400.25;6215584;23;20008;-89
2022/11/01 15:03:32;;;;;;;5.68;1.33;;;;;;;14.53;68.02;101391.91;6219362;23;20001;-89
2022/11/01 15:05:57;;;;;;;8.18;1.20;;;;;;;14.51;67.35;101380.59;6229710;23;20064;-88
2022/11/01 15:08:36;;;;;;;8.77;1.20;;;;;;;14.49;67.39;101382.75;6224441;23;20005;-88
2022/11/01 15:11:03;;;;;;;8.38;1.40;;;;;;;14.43;68.06;101378.44;6225029;23;20028;-88
2022/11/01 15:13:32;;;;;;;9.57;1.50;;;;;;;14.38;68.57;101382.75;6219595;23;20001;-89
2022/11/01 15:16:20;;;;;;;9.32;1.75;;;;;;;14.32;68.94;101378.44;6215158;23;20068;-87
2022/11/01 15:18:50;;;;;;;5.73;1.20;;;;;;;14.28;68.91;101379.25;6213442;23;20447;-86
2022/11/01 15:21:22;;;;;;;9.43;1.30;;;;;;;14.19;68.69;101374.38;6188248;23;20244;-95
2022/11/01 15:23:49;;;;;;;11.48;1.35;;;;;;;14.19;68.98;101377.09;6211908;23;20001;-91
2022/11/01 15:26:17;;;;;;;7.05;1.38;;;;;;;14.14;68.87;101370.88;6187232;23;20005;-93
2022/11/01 15:28:48;;;;;;;8.68;1.67;;;;;;;14.12;69.17;101378.44;6212924;23;20009;-92
2022/11/01 15:31:14;;;;;;;5.95;1.13;;;;;;;14.05;69.44;101387.59;6211669;23;20059;-94
2022/11/01 15:34:00;;;;;;;9.47;1.70;;;;;;;14.04;69.38;101391.38;6212878;23;20015;-94
2022/11/01 15:36:44;;;;;;;8.93;1.23;;;;;;;13.91;70.06;101384.59;6212660;23;20356;-92
2022/11/01 15:39:19;;;;;;;9.88;1.10;;;;;;;13.89;70.41;101388.63;6212678;23;20428;-93
2022/11/01 15:41:45;;;;;;;6.55;1.38;;;;;;;13.78;69.66;101372.44;6185756;23;20134;-93
2022/11/01 15:44:18;;;;;;;7.68;1.30;;;;;;;13.82;70.46;101385.41;6212771;23;20043;-92
2022/11/01 15:46:44;;;;;;;8.93;1.33;;;;;;;13.75;70.31;101374.88;6213001;23;20012;-93
2022/11/01 15:49:28;;;;;;;7.95;1.30;;;;;;;13.68;71.03;101374.31;6219767;23;20004;-93
2022/11/01 15:52:25;;;;;;;8.73;1.48;;;;;;;13.62;71.58;101386.94;6221020;23;20062;-93
2022/11/01 15:55:11;;;;;;;9.95;1.38;;;;;;;13.56;71.21;101388.00;6195145;23;20000;-93
2022/11/01 15:57:48;;;;;;;7.88;1.40;;;;;;;13.53;71.11;101388.53;6220865;23;20340;-93
2022/11/01 16:00:30;;;;;;;8.18;1.20;;;;;;;13.41;71.88;101376.09;6187044;23;20005;-93
2022/11/01 16:03:04;;;;;;;13.80;1.90;;;;;;;13.38;71.59;101387.38;6213491;23;20011;-92
2022/11/01 16:05:49;;;;;;;8.57;1.73;;;;;;;13.25;72.05;101383.25;6213840;23;20239;-93
2022/11/01 16:08:24;;;;;;;13.95;2.10;;;;;;;13.21;73.01;101387.56;6210899;23;20390;-91
2022/11/01 16:10:50;;;;;;;15.43;2.10;;;;;;;13.18;72.44;101386.19;6213752;23;20001;-92
2022/11/01 16:13:18;;;;;;;9.88;1.42;;;;;;;13.13;72.93;101380.00;6213937;23;20493;-92
2022/11/01 16:16:05;;;;;;;11.98;1.60;;;;;;;13.25;72.37;101391.34;6192532;23;20009;-92
2022/11/01 16:18:35;;;;;;;10.85;1.40;;;;;;;13.18;73.00;101401.56;6212774;23;20012;-93
2022/11/01 16:21:21;;;;;;;12.52;1.48;;;;;;;13.15;73.35;101404.75;6213275;23;20005;-91
2022/11/01 16:24:14;;;;;;;7.50;1.33;;;;;;;13.07;73.57;101398.00;6214487;23;20008;-92
2022/11/01 16:26:53;;;;;;;5.73;1.40;;;;;;;12.95;74.05;101402.78;6212987;23;20231;-91
2022/11/01 16:29:39;;;;;;;8.57;1.52;;;;;;;12.92;74.56;101412.16;6214046;23;20005;-90
2022/11/01 16:32:18;;;;;;;8.05;1.35;;;;;;;12.84;74.47;101400.00;6214263;23;20009;-90
2022/11/01 16:34:45;;;;;;;11.23;1.40;;;;;;;12.87;74.65;101414.81;6214697;23;20001;-92
2022/11/01 16:37:41;;;;;;;8.75;1.42;;;;;;;12.82;75.41;101414.78;6213799;23;20087;-93
2022/11/01 16:40:25;;;;;;;5.70;1.25;;;;;;;12.77;76.03;101415.56;6211200;23;20329;-93
2022/11/01 16:42:50;;;;;;;6.20;1.15;;;;;;;12.74;76.10;101413.38;6216775;23;20009;-92
2022/11/01 16:45:16;;;;;;;9.57;1.77;;;;;;;12.55;76.45;101394.97;6215883;23;20004;-93